createdAt,value
2022-09-04T00:00:00.084Z,30.35
2022-09-04T00:02:55.356Z,30.51
2022-09-04T00:05:35.298Z,30.33
2022-09-04T00:08:16.940Z,30.41
2022-09-04T00:10:49.535Z,30.45
2022-09-04T00:13:33.159Z,30.66
2022-09-04T00:16:22.131Z,30.33
2022-09-04T00:19:07.679Z,30.77
2022-09-04T00:21:39.940Z,30.52
2022-09-04T00:24:18.279Z,30.55
2022-09-04T00:26:58.647Z,30.68
2022-09-04T00:29:42.800Z,30.76
2022-09-04T00:32:18.789Z,30.59
2022-09-04T00:35:10.702Z,30.84
2022-09-04T00:37:41.203Z,30.56
2022-09-04T00:40:38.846Z,30.68
2022-09-04T00:43:22.252Z,30.99
2022-09-04T00:46:06.199Z,30.82
2022-09-04T00:48:41.982Z,30.84
2022-09-04T00:51:46.447Z,31.02
2022-09-04T00:54:28.983Z,31.04
2022-09-04T00:57:10.027Z,31.04
2022-09-04T00:59:45.646Z,31.19
2022-09-04T01:02:43.821Z,30.98
2022-09-04T01:05:33.064Z,31.10
2022-09-04T01:08:23.888Z,31.15
2022-09-04T01:10:51.656Z,31.01
2022-09-04T01:13:38.540Z,31.08
2022-09-04T01:16:36.071Z,31.35
2022-09-04T01:19:21.614Z,31.17
2022-09-04T01:22:03.540Z,31.03
2022-09-04T01:24:41.283Z,31.20
2022-09-04T01:27:09.381Z,31.35
2022-09-04T01:29:53.302Z,31.14
2022-09-04T01:32:31.815Z,31.16
2022-09-04T01:35:09.199Z,31.29
2022-09-04T01:37:43.781Z,31.50
2022-09-04T01:40:21.944Z,31.35
2022-09-04T01:42:51.613Z,31.40
2022-09-04T01:45:38.067Z,31.45
2022-09-04T01:48:07.973Z,31.35
2022-09-04T01:50:35.217Z,31.59
2022-09-04T01:53:07.092Z,31.48
2022-09-04T01:55:58.460Z,31.52
2022-09-04T01:58:50.964Z,31.62
2022-09-04T02:01:35.580Z,31.51
2022-09-04T02:04:25.729Z,31.69
2022-09-04T02:07:19.837Z,31.52
2022-09-04T02:10:11.763Z,31.66
2022-09-04T02:12:58.330Z,31.69
2022-09-04T02:15:30.879Z,31.79
2022-09-04T02:18:12.365Z,31.77
2022-09-04T02:20:53.734Z,32.04
2022-09-04T02:23:29.990Z,31.91
2022-09-04T02:26:15.088Z,32.05
2022-09-04T02:28:56.028Z,31.89
2022-09-04T02:31:43.676Z,32.10
2022-09-04T02:34:20.689Z,32.04
2022-09-04T02:36:54.417Z,32.20
2022-09-04T02:40:00.885Z,32.25
2022-09-04T02:42:47.603Z,32.18
2022-09-04T02:45:19.839Z,32.23
2022-09-04T02:48:03.963Z,32.08
2022-09-04T02:51:08.450Z,32.26
2022-09-04T02:53:40.991Z,32.28
2022-09-04T02:56:19.895Z,32.36
2022-09-04T02:59:05.518Z,32.22
2022-09-04T03:01:38.347Z,32.31
2022-09-04T03:04:16.321Z,32.37
2022-09-04T03:06:52.319Z,32.57
2022-09-04T03:09:29.779Z,32.50
2022-09-04T03:12:29.472Z,32.50
2022-09-04T03:15:03.908Z,32.65
2022-09-04T03:17:46.437Z,32.64
2022-09-04T03:20:25.261Z,32.64
2022-09-04T03:23:04.139Z,32.61
2022-09-04T03:25:48.373Z,32.77
2022-09-04T03:28:45.483Z,32.60
2022-09-04T03:31:29.052Z,32.64
2022-09-04T03:34:22.515Z,32.76
2022-09-04T03:37:10.853Z,32.74
2022-09-04T03:39:56.661Z,32.71
2022-09-04T03:42:59.347Z,32.79
2022-09-04T03:45:59.296Z,32.89
2022-09-04T03:48:39.960Z,33.15
2022-09-04T03:51:18.032Z,32.89
2022-09-04T03:53:50.763Z,33.01
2022-09-04T03:56:37.377Z,32.90
2022-09-04T03:59:08.839Z,32.97
2022-09-04T04:01:42.222Z,33.11
2022-09-04T04:04:46.501Z,33.11
2022-09-04T04:07:55.461Z,33.16
2022-09-04T04:10:33.544Z,33.14
2022-09-04T04:13:08.667Z,33.09
2022-09-04T04:15:46.851Z,33.25
2022-09-04T04:18:26.496Z,33.40
2022-09-04T04:21:31.680Z,33.19
2022-09-04T04:24:39.021Z,33.23
2022-09-04T04:27:33.461Z,33.34
2022-09-04T04:30:09.178Z,33.33
2022-09-04T04:33:13.623Z,33.31
2022-09-04T04:36:00.373Z,33.36
2022-09-04T04:38:44.642Z,33.42
2022-09-04T04:41:24.788Z,33.42
2022-09-04T04:44:12.535Z,33.40
2022-09-04T04:46:57.226Z,33.54
2022-09-04T04:49:34.013Z,33.54
2022-09-04T04:52:19.077Z,33.48
2022-09-04T04:54:52.852Z,33.60
2022-09-04T04:57:43.389Z,33.57
2022-09-04T05:00:22.782Z,33.57
2022-09-04T05:03:16.119Z,33.71
2022-09-04T05:06:09.445Z,33.68
2022-09-04T05:08:43.939Z,33.65
2022-09-04T05:11:18.858Z,33.68
2022-09-04T05:13:51.590Z,33.91
2022-09-04T05:16:50.035Z,33.70
2022-09-04T05:19:29.675Z,33.78
2022-09-04T05:22:03.689Z,33.91
2022-09-04T05:24:56.143Z,33.98
2022-09-04T05:27:22.779Z,33.92
2022-09-04T05:30:00.699Z,33.92
2022-09-04T05:32:49.620Z,33.88
2022-09-04T05:35:45.240Z,33.99
2022-09-04T05:38:31.853Z,33.97
2022-09-04T05:41:16.322Z,34.03
2022-09-04T05:44:09.147Z,34.21
2022-09-04T05:46:57.669Z,34.08
2022-09-04T05:49:43.205Z,33.93
2022-09-04T05:52:29.533Z,33.73
2022-09-04T05:55:02.575Z,33.66
2022-09-04T05:57:47.220Z,33.82
2022-09-04T06:00:18.676Z,34.02
2022-09-04T06:03:22.995Z,33.60
2022-09-04T06:06:17.265Z,33.55
2022-09-04T06:08:56.121Z,33.72
2022-09-04T06:11:45.824Z,33.60
2022-09-04T06:14:34.675Z,33.31
2022-09-04T06:17:10.132Z,33.52
2022-09-04T06:20:08.161Z,33.24
2022-09-04T06:23:11.415Z,33.23
2022-09-04T06:26:08.692Z,33.07
2022-09-04T06:28:46.195Z,32.85
2022-09-04T06:31:19.085Z,32.55
2022-09-04T06:34:11.344Z,32.46
2022-09-04T06:37:03.012Z,32.35
2022-09-04T06:39:43.347Z,32.04
2022-09-04T06:42:30.745Z,32.43
2022-09-04T06:45:03.896Z,32.45
2022-09-04T06:47:50.155Z,32.86
2022-09-04T06:50:21.725Z,32.89
2022-09-04T06:53:18.689Z,32.82
2022-09-04T06:55:53.673Z,33.03
2022-09-04T06:58:43.081Z,32.82
2022-09-04T07:01:40.173Z,32.65
2022-09-04T07:04:20.103Z,32.52
2022-09-04T07:07:16.893Z,32.58
2022-09-04T07:09:49.400Z,32.87
2022-09-04T07:12:27.996Z,32.84
2022-09-04T07:15:27.208Z,32.65
2022-09-04T07:18:23.594Z,32.84
2022-09-04T07:21:15.376Z,32.46
2022-09-04T07:23:57.759Z,32.29
2022-09-04T07:26:37.781Z,32.11
2022-09-04T07:29:31.627Z,31.89
2022-09-04T07:31:58.297Z,31.60
2022-09-04T07:34:37.904Z,31.33
2022-09-04T07:37:27.674Z,30.86
2022-09-04T07:40:09.676Z,31.06
2022-09-04T07:42:50.932Z,30.31
2022-09-04T07:45:35.051Z,30.42
2022-09-04T07:48:20.237Z,30.34
2022-09-04T07:51:07.183Z,30.83
2022-09-04T07:54:05.712Z,30.16
2022-09-04T07:57:05.916Z,30.05
2022-09-04T07:59:57.035Z,30.10
2022-09-04T08:02:32.879Z,29.80
2022-09-04T08:05:12.104Z,30.12
2022-09-04T08:07:38.764Z,29.84
2022-09-04T08:10:26.729Z,30.23
2022-09-04T08:13:14.018Z,30.54
2022-09-04T08:15:53.063Z,30.65
2022-09-04T08:18:38.599Z,31.00
2022-09-04T08:21:14.397Z,31.34
2022-09-04T08:23:44.009Z,31.38
2022-09-04T08:26:20.604Z,31.79
2022-09-04T08:29:00.491Z,31.98
2022-09-04T08:31:32.733Z,32.05
2022-09-04T08:34:31.252Z,31.92
2022-09-04T08:37:05.215Z,32.27
2022-09-04T08:39:44.813Z,32.38
2022-09-04T08:42:42.072Z,32.45
2022-09-04T08:45:29.372Z,32.62
2022-09-04T08:48:09.187Z,32.47
2022-09-04T08:51:13.554Z,32.38
2022-09-04T08:53:46.253Z,32.72
2022-09-04T08:56:28.371Z,32.61
2022-09-04T08:59:20.010Z,32.73
2022-09-04T09:02:27.402Z,32.78
2022-09-04T09:05:14.037Z,32.69
2022-09-04T09:08:06.292Z,32.67
2022-09-04T09:10:53.104Z,32.64
2022-09-04T09:14:01.739Z,32.94
2022-09-04T09:16:43.883Z,33.12
2022-09-04T09:19:37.475Z,32.80
2022-09-04T09:22:12.777Z,32.89
2022-09-04T09:25:11.168Z,33.10
2022-09-04T09:28:02.766Z,33.03
2022-09-04T09:31:00.672Z,33.09
2022-09-04T09:33:55.551Z,33.10
2022-09-04T09:36:53.366Z,33.00
2022-09-04T09:39:35.107Z,33.17
2022-09-04T09:42:13.807Z,33.14
2022-09-04T09:44:51.074Z,33.21
2022-09-04T09:47:38.624Z,33.09
2022-09-04T09:50:10.661Z,33.12
2022-09-04T09:53:11.912Z,33.16
2022-09-04T09:55:53.846Z,33.10
2022-09-04T09:58:26.585Z,32.99
2022-09-04T10:01:08.344Z,32.92
2022-09-04T10:03:38.222Z,32.87
2022-09-04T10:06:27.060Z,33.07
2022-09-04T10:09:14.340Z,32.71
2022-09-04T10:12:08.398Z,32.82
2022-09-04T10:14:55.187Z,32.79
2022-09-04T10:17:24.873Z,32.88
2022-09-04T10:20:12.801Z,32.84
2022-09-04T10:23:05.697Z,33.08
2022-09-04T10:26:10.405Z,32.87
2022-09-04T10:29:09.908Z,32.93
2022-09-04T10:32:08.309Z,32.68
2022-09-04T10:34:54.302Z,33.02
2022-09-04T10:37:59.617Z,33.03
2022-09-04T10:40:42.874Z,32.65
2022-09-04T10:43:37.161Z,32.92
2022-09-04T10:46:26.138Z,32.59
2022-09-04T10:48:55.789Z,32.86
2022-09-04T10:51:54.872Z,32.82
2022-09-04T10:54:33.661Z,32.85
2022-09-04T10:57:37.923Z,32.61
2022-09-04T11:00:11.641Z,32.79
2022-09-04T11:02:53.648Z,32.81
2022-09-04T11:05:39.340Z,32.51
2022-09-04T11:08:36.082Z,32.68
2022-09-04T11:11:15.686Z,32.72
2022-09-04T11:14:10.859Z,32.62
2022-09-04T11:17:16.262Z,32.44
2022-09-04T11:20:17.575Z,32.46
2022-09-04T11:23:22.768Z,32.72
2022-09-04T11:26:27.343Z,32.74
2022-09-04T11:29:14.595Z,32.83
2022-09-04T11:31:58.823Z,32.49
2022-09-04T11:34:54.019Z,32.36
2022-09-04T11:37:31.064Z,32.39
2022-09-04T11:40:22.173Z,32.46
2022-09-04T11:43:01.721Z,32.66
2022-09-04T11:46:00.743Z,32.21
2022-09-04T11:48:30.554Z,32.27
2022-09-04T11:51:42.802Z,32.56
2022-09-04T11:54:41.129Z,32.55
2022-09-04T11:57:20.387Z,32.50
2022-09-04T12:00:11.353Z,32.18
2022-09-04T12:02:56.755Z,32.54
2022-09-04T12:05:39.917Z,32.16
2022-09-04T12:08:28.206Z,32.16
2022-09-04T12:11:22.326Z,32.21
2022-09-04T12:14:12.114Z,31.98
2022-09-04T12:16:42.158Z,32.45
2022-09-04T12:19:46.614Z,31.85
2022-09-04T12:22:25.056Z,32.23
2022-09-04T12:25:10.579Z,32.25
2022-09-04T12:28:08.819Z,31.90
2022-09-04T12:30:58.408Z,32.14
2022-09-04T12:33:46.265Z,31.99
2022-09-04T12:36:30.536Z,32.07
2022-09-04T12:39:21.212Z,31.93
2022-09-04T12:41:58.230Z,31.84
2022-09-04T12:44:45.586Z,31.86
2022-09-04T12:47:58.652Z,31.96
2022-09-04T12:50:33.516Z,31.62
2022-09-04T12:53:31.029Z,31.79
2022-09-04T12:56:15.757Z,31.68
2022-09-04T12:59:23.355Z,31.66
2022-09-04T13:02:02.108Z,31.68
2022-09-04T13:04:35.610Z,31.85
2022-09-04T13:07:16.384Z,31.42
2022-09-04T13:10:22.055Z,31.49
2022-09-04T13:13:05.191Z,31.61
2022-09-04T13:15:58.204Z,31.36
2022-09-04T13:19:00.136Z,31.48
2022-09-04T13:21:51.810Z,31.67
2022-09-04T13:24:44.603Z,31.33
2022-09-04T13:27:34.130Z,31.72
2022-09-04T13:30:09.605Z,31.16
2022-09-04T13:33:01.199Z,31.56
2022-09-04T13:35:50.090Z,31.34
2022-09-04T13:38:39.857Z,31.26
2022-09-04T13:41:16.833Z,31.29
2022-09-04T13:44:11.555Z,31.07
2022-09-04T13:46:43.861Z,31.13
2022-09-04T13:49:14.836Z,31.04
2022-09-04T13:51:45.550Z,30.84
2022-09-04T13:54:17.764Z,31.06
2022-09-04T13:57:03.383Z,30.99
2022-09-04T13:59:30.121Z,31.04
2022-09-04T14:02:02.357Z,31.19
2022-09-04T14:04:40.275Z,30.83
2022-09-04T14:07:32.544Z,30.76
2022-09-04T14:10:04.277Z,30.62
2022-09-04T14:12:53.681Z,30.62
2022-09-04T14:15:44.598Z,30.82
2022-09-04T14:18:45.305Z,30.65
2022-09-04T14:21:25.304Z,30.46
2022-09-04T14:24:03.507Z,30.81
2022-09-04T14:26:59.695Z,30.69
2022-09-04T14:30:01.804Z,30.39
2022-09-04T14:32:32.138Z,30.61
2022-09-04T14:35:02.220Z,30.59
2022-09-04T14:37:49.014Z,30.53
2022-09-04T14:40:29.097Z,30.48
2022-09-04T14:43:33.957Z,30.46
2022-09-04T14:46:07.047Z,30.38
2022-09-04T14:48:40.306Z,30.69
2022-09-04T14:51:17.891Z,30.36
2022-09-04T14:53:50.271Z,30.55
2022-09-04T14:56:38.216Z,30.48
2022-09-04T14:59:22.017Z,30.25
2022-09-04T15:02:11.182Z,30.54
2022-09-04T15:04:46.952Z,30.54
2022-09-04T15:07:30.647Z,30.30
2022-09-04T15:10:09.256Z,30.28
2022-09-04T15:13:14.478Z,30.43
2022-09-04T15:15:46.460Z,30.32
2022-09-04T15:18:23.389Z,30.11
2022-09-04T15:21:21.289Z,30.26
2022-09-04T15:23:50.313Z,30.22
2022-09-04T15:26:37.859Z,30.29
2022-09-04T15:29:20.525Z,30.16
2022-09-04T15:31:47.540Z,30.24
2022-09-04T15:34:24.997Z,30.45
2022-09-04T15:36:51.731Z,30.16
2022-09-04T15:39:29.174Z,30.14
2022-09-04T15:41:56.024Z,30.43
2022-09-04T15:44:33.700Z,29.98
2022-09-04T15:47:23.552Z,30.25
2022-09-04T15:50:00.445Z,30.14
2022-09-04T15:52:51.024Z,30.31
2022-09-04T15:55:24.677Z,30.15
2022-09-04T15:58:15.818Z,30.46
2022-09-04T16:01:08.535Z,30.37
2022-09-04T16:03:54.196Z,30.21
2022-09-04T16:06:29.964Z,30.26
2022-09-04T16:09:10.206Z,30.16
2022-09-04T16:11:41.523Z,30.13
2022-09-04T16:14:15.882Z,30.09
2022-09-04T16:16:46.474Z,30.34
2022-09-04T16:19:20.828Z,29.99
2022-09-04T16:22:10.781Z,30.21
2022-09-04T16:24:47.971Z,30.31
2022-09-04T16:27:21.253Z,30.24
2022-09-04T16:29:52.897Z,30.42
2022-09-04T16:32:28.728Z,30.28
2022-09-04T16:34:56.041Z,30.41
2022-09-04T16:37:30.435Z,30.13
2022-09-04T16:40:24.975Z,30.28
2022-09-04T16:43:09.557Z,30.42
2022-09-04T16:45:40.213Z,30.27
2022-09-04T16:48:33.905Z,30.17
2022-09-04T16:51:23.500Z,30.18
2022-09-04T16:54:05.245Z,30.54
2022-09-04T16:56:40.479Z,30.14
2022-09-04T16:59:24.399Z,30.32
2022-09-04T17:01:59.361Z,30.70
2022-09-04T17:04:52.561Z,30.18
2022-09-04T17:07:24.303Z,30.32
2022-09-04T17:10:01.682Z,30.46
2022-09-04T17:12:38.097Z,30.55
2022-09-04T17:15:22.580Z,30.55
2022-09-04T17:17:51.575Z,30.55
2022-09-04T17:20:45.355Z,30.58
2022-09-04T17:29:01.922Z,30.30
2022-09-04T17:29:15.036Z,30.54
2022-09-04T17:29:46.955Z,30.49
2022-09-04T17:33:35.546Z,30.48
2022-09-04T17:40:43.703Z,30.42
2022-09-04T17:40:54.114Z,30.78
2022-09-04T17:41:47.366Z,30.60
2022-09-04T17:44:50.424Z,30.54
2022-09-04T17:47:28.607Z,30.74
2022-09-04T17:49:55.869Z,30.67
2022-09-04T17:52:28.219Z,30.70
2022-09-04T17:55:07.535Z,30.94
2022-09-04T17:58:02.235Z,30.51
2022-09-04T18:00:33.108Z,30.82
2022-09-04T18:03:29.802Z,30.59
2022-09-04T18:06:03.409Z,30.99
2022-09-04T18:08:39.483Z,30.66
2022-09-04T18:11:17.892Z,30.62
2022-09-04T18:13:52.070Z,31.05
2022-09-04T18:16:38.860Z,30.95
2022-09-04T18:19:20.479Z,30.93
2022-09-04T18:22:08.441Z,31.02
2022-09-04T18:24:48.597Z,30.90
2022-09-04T18:27:21.524Z,31.08
2022-09-04T18:32:16.875Z,31.01
2022-09-04T18:37:22.450Z,31.10
2022-09-04T18:37:41.570Z,31.35
2022-09-04T18:39:45.022Z,31.14
2022-09-04T18:47:08.436Z,30.99
2022-09-04T18:50:32.961Z,31.36
2022-09-04T18:50:34.632Z,31.11
2022-09-04T18:51:21.523Z,31.28
2022-09-04T18:53:52.356Z,31.16
2022-09-04T18:56:42.227Z,31.13
2022-09-04T18:59:32.640Z,31.50
2022-09-04T19:02:14.046Z,31.16
2022-09-04T19:04:58.813Z,31.33
2022-09-04T19:07:46.060Z,31.51
2022-09-04T19:10:19.917Z,31.52
2022-09-04T19:12:49.561Z,31.34
2022-09-04T19:15:36.163Z,31.58
2022-09-04T19:18:18.548Z,31.63
2022-09-04T19:20:49.148Z,31.58
2022-09-04T19:23:25.868Z,31.44
2022-09-04T19:25:55.159Z,31.81
2022-09-04T19:28:26.285Z,31.66
2022-09-04T19:31:01.099Z,31.52
2022-09-04T19:33:40.883Z,31.91
2022-09-04T19:36:18.983Z,31.74
2022-09-04T19:45:55.350Z,31.64
2022-09-04T19:46:03.655Z,31.87
2022-09-04T19:46:13.996Z,31.74
2022-09-04T19:47:40.873Z,31.93
2022-09-04T19:53:20.350Z,32.19
2022-09-04T19:53:41.105Z,31.95
2022-09-04T19:56:11.829Z,31.88
2022-09-04T19:58:46.448Z,32.07
2022-09-04T20:01:20.414Z,32.04
2022-09-04T20:03:54.976Z,31.80
2022-09-04T20:06:30.158Z,32.29
2022-09-04T20:09:05.532Z,32.18
2022-09-04T20:11:54.139Z,32.39
2022-09-04T20:14:35.981Z,32.27
2022-09-04T20:17:10.551Z,32.11
2022-09-04T20:19:44.859Z,32.21
2022-09-04T20:22:33.501Z,32.32
2022-09-04T20:25:17.143Z,32.26
2022-09-04T20:27:47.224Z,32.20
2022-09-04T20:30:19.512Z,32.18
2022-09-04T20:32:58.713Z,32.31
2022-09-04T20:35:37.801Z,32.18
2022-09-04T20:38:23.951Z,32.61
2022-09-04T20:40:56.487Z,32.29
2022-09-04T20:43:31.706Z,32.10
2022-09-04T20:51:29.334Z,32.36
2022-09-04T20:52:52.414Z,32.23
2022-09-04T20:52:54.889Z,32.48
2022-09-04T20:54:55.988Z,32.49
2022-09-04T21:03:07.522Z,32.46
2022-09-04T21:03:23.726Z,32.34
2022-09-04T21:03:59.066Z,32.39
2022-09-04T21:06:38.870Z,32.25
2022-09-04T21:09:54.732Z,32.28
2022-09-04T21:12:39.388Z,32.36
2022-09-04T21:15:10.824Z,32.56
2022-09-04T21:17:50.828Z,32.52
2022-09-04T21:20:46.643Z,32.56
2022-09-04T21:23:35.244Z,32.45
2022-09-04T21:26:33.777Z,32.54
2022-09-04T21:29:22.047Z,32.48
2022-09-04T21:32:18.213Z,32.47
2022-09-04T21:34:55.619Z,32.34
2022-09-04T21:37:40.981Z,32.47
2022-09-04T21:40:42.250Z,32.47
2022-09-04T21:43:19.155Z,32.67
2022-09-04T21:46:13.201Z,32.62
2022-09-04T21:49:07.812Z,32.68
2022-09-04T21:51:35.054Z,32.56
2022-09-04T21:54:37.552Z,32.62
2022-09-04T22:02:27.596Z,32.61
2022-09-04T22:02:38.829Z,32.49
2022-09-04T22:03:22.333Z,32.53
2022-09-04T22:06:08.947Z,32.75
2022-09-04T22:13:26.708Z,32.74
2022-09-04T22:13:38.392Z,32.75
2022-09-04T22:14:42.966Z,32.76
2022-09-04T22:17:27.247Z,32.87
2022-09-04T22:20:12.896Z,32.63
2022-09-04T22:22:57.746Z,32.64
2022-09-04T22:25:44.949Z,32.74
2022-09-04T22:28:36.663Z,32.91
2022-09-04T22:31:24.808Z,32.79
2022-09-04T22:34:18.464Z,32.80
2022-09-04T22:37:05.752Z,32.73
2022-09-04T22:39:43.509Z,32.86
2022-09-04T22:42:43.808Z,32.66
2022-09-04T22:45:24.700Z,32.62
2022-09-04T22:48:13.244Z,32.77
2022-09-04T22:50:52.560Z,33.02
2022-09-04T22:53:45.356Z,32.87
2022-09-04T22:56:24.749Z,32.77
2022-09-04T22:59:27.215Z,32.76
2022-09-04T23:02:13.511Z,32.81
2022-09-04T23:04:57.776Z,32.77
2022-09-04T23:12:57.264Z,32.94
2022-09-04T23:13:47.314Z,33.00
2022-09-04T23:14:08.800Z,32.91
2022-09-04T23:17:08.764Z,33.12
2022-09-04T23:25:47.621Z,32.91
2022-09-04T23:26:43.941Z,33.01
2022-09-04T23:26:49.023Z,33.07
2022-09-04T23:29:21.503Z,32.79
2022-09-04T23:32:30.398Z,33.15
2022-09-04T23:35:32.082Z,33.06
2022-09-04T23:38:19.980Z,33.10
2022-09-04T23:40:50.876Z,33.18
2022-09-04T23:43:58.047Z,33.18
2022-09-04T23:46:40.353Z,33.17
2022-09-04T23:49:40.872Z,33.01
2022-09-04T23:52:20.589Z,33.12
2022-09-04T23:55:10.464Z,33.07
2022-09-04T23:57:42.519Z,33.18
